sensor_id;sensor_type;location;lat;lon;timestamp;temperature;humidity
6964;DHT22;3522;50.856;7.278;2022-10-17T00:01:20;16.00;99.90
6964;DHT22;3522;50.856;7.278;2022-10-17T00:03:48;16.00;99.90
6964;DHT22;3522;50.856;7.278;2022-10-17T00:06:15;16.00;99.90
6964;DHT22;3522;50.856;7.278;2022-10-17T00:08:42;16.00;99.90
6964;DHT22;3522;50.856;7.278;2022-10-17T00:11:11;16.00;99.90
6964;DHT22;3522;50.856;7.278;2022-10-17T00:13:39;16.00;99.90
6964;DHT22;3522;50.856;7.278;2022-10-17T00:16:06;16.00;99.90
6964;DHT22;3522;50.856;7.278;2022-10-17T00:18:32;16.00;99.90
6964;DHT22;3522;50.856;7.278;2022-10-17T00:21:00;16.00;99.90
6964;DHT22;3522;50.856;7.278;2022-10-17T00:23:27;16.00;99.90
6964;DHT22;3522;50.856;7.278;2022-10-17T00:25:58;16.00;99.90
6964;DHT22;3522;50.856;7.278;2022-10-17T00:28:24;16.00;99.90
6964;DHT22;3522;50.856;7.278;2022-10-17T00:30:54;16.00;99.90
6964;DHT22;3522;50.856;7.278;2022-10-17T00:33:20;16.00;99.90
6964;DHT22;3522;50.856;7.278;2022-10-17T00:35:47;16.00;99.90
6964;DHT22;3522;50.856;7.278;2022-10-17T00:38:15;16.00;99.90
6964;DHT22;3522;50.856;7.278;2022-10-17T00:40:41;16.00;99.90
6964;DHT22;3522;50.856;7.278;2022-10-17T00:43:10;16.00;99.90
6964;DHT22;3522;50.856;7.278;2022-10-17T00:45:40;16.00;99.90
6964;DHT22;3522;50.856;7.278;2022-10-17T00:48:07;16.00;99.90
6964;DHT22;3522;50.856;7.278;2022-10-17T00:50:34;16.10;99.90
6964;DHT22;3522;50.856;7.278;2022-10-17T00:53:01;16.10;99.90
6964;DHT22;3522;50.856;7.278;2022-10-17T00:55:32;16.10;99.90
6964;DHT22;3522;50.856;7.278;2022-10-17T00:58:00;16.10;99.90
6964;DHT22;3522;50.856;7.278;2022-10-17T01:00:28;16.10;99.90
6964;DHT22;3522;50.856;7.278;2022-10-17T01:02:55;16.10;99.90
6964;DHT22;3522;50.856;7.278;2022-10-17T01:05:21;16.10;99.90
6964;DHT22;3522;50.856;7.278;2022-10-17T01:07:48;16.10;99.90
6964;DHT22;3522;50.856;7.278;2022-10-17T01:10:16;16.10;99.90
6964;DHT22;3522;50.856;7.278;2022-10-17T01:15:32;16.10;99.90
6964;DHT22;3522;50.856;7.278;2022-10-17T01:18:03;16.10;99.90
6964;DHT22;3522;50.856;7.278;2022-10-17T01:23:18;16.10;99.90
6964;DHT22;3522;50.856;7.278;2022-10-17T01:25:51;16.10;99.90
6964;DHT22;3522;50.856;7.278;2022-10-17T01:28:24;16.10;99.90
6964;DHT22;3522;50.856;7.278;2022-10-17T01:31:03;16.10;99.90
6964;DHT22;3522;50.856;7.278;2022-10-17T01:33:34;16.10;99.90
6964;DHT22;3522;50.856;7.278;2022-10-17T01:36:05;16.10;99.90
6964;DHT22;3522;50.856;7.278;2022-10-17T01:38:34;16.10;99.90
6964;DHT22;3522;50.856;7.278;2022-10-17T01:41:04;16.10;99.90
6964;DHT22;3522;50.856;7.278;2022-10-17T01:43:32;16.10;99.90
6964;DHT22;3522;50.856;7.278;2022-10-17T01:46:02;16.10;99.90
6964;DHT22;3522;50.856;7.278;2022-10-17T01:48:34;16.00;99.90
6964;DHT22;3522;50.856;7.278;2022-10-17T01:51:02;16.10;99.90
6964;DHT22;3522;50.856;7.278;2022-10-17T01:53:32;16.10;99.90
6964;DHT22;3522;50.856;7.278;2022-10-17T01:56:01;16.10;99.90
6964;DHT22;3522;50.856;7.278;2022-10-17T01:58:29;16.10;99.90
6964;DHT22;3522;50.856;7.278;2022-10-17T02:00:57;16.00;99.90
6964;DHT22;3522;50.856;7.278;2022-10-17T02:03:25;16.00;99.90
6964;DHT22;3522;50.856;7.278;2022-10-17T02:05:54;16.00;99.90
6964;DHT22;3522;50.856;7.278;2022-10-17T02:08:24;16.00;99.90
6964;DHT22;3522;50.856;7.278;2022-10-17T02:10:52;16.00;99.90
6964;DHT22;3522;50.856;7.278;2022-10-17T02:13:22;16.00;99.90
6964;DHT22;3522;50.856;7.278;2022-10-17T02:15:57;15.90;99.90
6964;DHT22;3522;50.856;7.278;2022-10-17T02:18:33;15.90;99.90
6964;DHT22;3522;50.856;7.278;2022-10-17T02:21:04;15.90;99.90
6964;DHT22;3522;50.856;7.278;2022-10-17T02:23:34;15.90;99.90
6964;DHT22;3522;50.856;7.278;2022-10-17T02:26:10;15.90;99.90
6964;DHT22;3522;50.856;7.278;2022-10-17T02:28:38;15.90;99.90
6964;DHT22;3522;50.856;7.278;2022-10-17T02:31:07;15.90;99.90
6964;DHT22;3522;50.856;7.278;2022-10-17T02:33:36;15.90;99.90
6964;DHT22;3522;50.856;7.278;2022-10-17T02:36:11;15.80;99.90
6964;DHT22;3522;50.856;7.278;2022-10-17T02:38:39;15.80;99.90
6964;DHT22;3522;50.856;7.278;2022-10-17T02:41:06;15.80;99.90
6964;DHT22;3522;50.856;7.278;2022-10-17T02:43:34;15.80;99.90
6964;DHT22;3522;50.856;7.278;2022-10-17T02:46:02;15.80;99.90
6964;DHT22;3522;50.856;7.278;2022-10-17T02:48:31;15.80;99.90
6964;DHT22;3522;50.856;7.278;2022-10-17T02:51:03;15.70;99.90
6964;DHT22;3522;50.856;7.278;2022-10-17T02:53:33;15.70;99.90
6964;DHT22;3522;50.856;7.278;2022-10-17T02:56:03;15.70;99.90
6964;DHT22;3522;50.856;7.278;2022-10-17T02:58:32;15.70;99.90
6964;DHT22;3522;50.856;7.278;2022-10-17T03:00:59;15.70;99.90
6964;DHT22;3522;50.856;7.278;2022-10-17T03:03:27;15.70;99.90
6964;DHT22;3522;50.856;7.278;2022-10-17T03:05:54;15.60;99.90
6964;DHT22;3522;50.856;7.278;2022-10-17T03:08:21;15.60;99.90
6964;DHT22;3522;50.856;7.278;2022-10-17T03:10:49;15.60;99.90
6964;DHT22;3522;50.856;7.278;2022-10-17T03:13:16;15.70;99.90
6964;DHT22;3522;50.856;7.278;2022-10-17T03:15:43;15.70;99.90
6964;DHT22;3522;50.856;7.278;2022-10-17T03:18:09;15.70;99.90
6964;DHT22;3522;50.856;7.278;2022-10-17T03:20:36;15.60;99.90
6964;DHT22;3522;50.856;7.278;2022-10-17T03:23:02;15.70;99.90
6964;DHT22;3522;50.856;7.278;2022-10-17T03:25:29;15.70;99.90
6964;DHT22;3522;50.856;7.278;2022-10-17T03:27:58;15.70;99.90
6964;DHT22;3522;50.856;7.278;2022-10-17T03:30:25;15.70;99.90
6964;DHT22;3522;50.856;7.278;2022-10-17T03:32:52;15.70;99.90
6964;DHT22;3522;50.856;7.278;2022-10-17T03:35:18;15.70;99.90
6964;DHT22;3522;50.856;7.278;2022-10-17T03:37:45;15.60;99.90
6964;DHT22;3522;50.856;7.278;2022-10-17T03:40:12;15.70;99.90
6964;DHT22;3522;50.856;7.278;2022-10-17T03:42:38;15.60;99.90
6964;DHT22;3522;50.856;7.278;2022-10-17T03:45:06;15.60;99.90
6964;DHT22;3522;50.856;7.278;2022-10-17T03:47:33;15.60;99.90
6964;DHT22;3522;50.856;7.278;2022-10-17T03:49:59;15.60;99.90
6964;DHT22;3522;50.856;7.278;2022-10-17T03:52:26;15.70;99.90
6964;DHT22;3522;50.856;7.278;2022-10-17T03:54:53;15.70;99.90
6964;DHT22;3522;50.856;7.278;2022-10-17T03:57:19;15.70;99.90
6964;DHT22;3522;50.856;7.278;2022-10-17T03:59:46;15.70;99.90
6964;DHT22;3522;50.856;7.278;2022-10-17T04:02:13;15.70;99.90
6964;DHT22;3522;50.856;7.278;2022-10-17T04:04:40;15.80;99.90
6964;DHT22;3522;50.856;7.278;2022-10-17T04:07:07;15.80;99.90
6964;DHT22;3522;50.856;7.278;2022-10-17T04:09:33;15.80;99.90
6964;DHT22;3522;50.856;7.278;2022-10-17T04:12:00;15.80;99.90
6964;DHT22;3522;50.856;7.278;2022-10-17T04:14:26;15.80;99.90
6964;DHT22;3522;50.856;7.278;2022-10-17T04:16:53;15.80;99.90
6964;DHT22;3522;50.856;7.278;2022-10-17T04:19:21;15.70;99.90
6964;DHT22;3522;50.856;7.278;2022-10-17T04:21:47;15.70;99.90
6964;DHT22;3522;50.856;7.278;2022-10-17T04:24:14;15.70;99.90
6964;DHT22;3522;50.856;7.278;2022-10-17T04:26:40;15.70;99.90
6964;DHT22;3522;50.856;7.278;2022-10-17T04:29:07;15.70;99.90
6964;DHT22;3522;50.856;7.278;2022-10-17T04:31:33;15.70;99.90
6964;DHT22;3522;50.856;7.278;2022-10-17T04:34:00;15.70;99.90
6964;DHT22;3522;50.856;7.278;2022-10-17T04:36:28;15.70;99.90
6964;DHT22;3522;50.856;7.278;2022-10-17T04:38:54;15.70;99.90
6964;DHT22;3522;50.856;7.278;2022-10-17T04:41:21;15.60;99.90
6964;DHT22;3522;50.856;7.278;2022-10-17T04:43:48;15.70;99.90
6964;DHT22;3522;50.856;7.278;2022-10-17T04:46:14;15.70;99.90
6964;DHT22;3522;50.856;7.278;2022-10-17T04:48:41;15.70;99.90
6964;DHT22;3522;50.856;7.278;2022-10-17T04:51:09;15.70;99.90
6964;DHT22;3522;50.856;7.278;2022-10-17T04:53:38;15.70;99.90
6964;DHT22;3522;50.856;7.278;2022-10-17T04:56:09;15.80;99.90
6964;DHT22;3522;50.856;7.278;2022-10-17T04:58:35;15.80;99.90
6964;DHT22;3522;50.856;7.278;2022-10-17T05:01:05;15.80;99.90
6964;DHT22;3522;50.856;7.278;2022-10-17T05:03:32;15.80;99.90
6964;DHT22;3522;50.856;7.278;2022-10-17T05:06:01;15.80;99.90
6964;DHT22;3522;50.856;7.278;2022-10-17T05:08:28;15.80;99.90
6964;DHT22;3522;50.856;7.278;2022-10-17T05:10:56;15.80;99.90
6964;DHT22;3522;50.856;7.278;2022-10-17T05:13:22;15.80;99.90
6964;DHT22;3522;50.856;7.278;2022-10-17T05:15:49;15.90;99.90
6964;DHT22;3522;50.856;7.278;2022-10-17T05:18:15;15.90;99.90
6964;DHT22;3522;50.856;7.278;2022-10-17T05:20:42;15.90;99.90
6964;DHT22;3522;50.856;7.278;2022-10-17T05:23:08;15.90;99.90
6964;DHT22;3522;50.856;7.278;2022-10-17T05:25:35;15.90;99.90
6964;DHT22;3522;50.856;7.278;2022-10-17T05:28:03;15.90;99.90
6964;DHT22;3522;50.856;7.278;2022-10-17T05:30:29;15.90;99.90
6964;DHT22;3522;50.856;7.278;2022-10-17T05:32:56;15.90;99.90
6964;DHT22;3522;50.856;7.278;2022-10-17T05:35:22;16.00;99.90
6964;DHT22;3522;50.856;7.278;2022-10-17T05:37:49;16.00;99.90
6964;DHT22;3522;50.856;7.278;2022-10-17T05:40:16;16.00;99.90
6964;DHT22;3522;50.856;7.278;2022-10-17T05:42:44;16.00;99.90
6964;DHT22;3522;50.856;7.278;2022-10-17T05:45:12;16.00;99.90
6964;DHT22;3522;50.856;7.278;2022-10-17T05:47:39;16.00;99.90
6964;DHT22;3522;50.856;7.278;2022-10-17T05:50:06;16.00;99.90
6964;DHT22;3522;50.856;7.278;2022-10-17T05:52:33;15.90;99.90
6964;DHT22;3522;50.856;7.278;2022-10-17T05:54:59;15.90;99.90
6964;DHT22;3522;50.856;7.278;2022-10-17T05:57:26;15.90;99.90
6964;DHT22;3522;50.856;7.278;2022-10-17T05:59:52;16.00;99.90
6964;DHT22;3522;50.856;7.278;2022-10-17T06:02:20;16.00;99.90
6964;DHT22;3522;50.856;7.278;2022-10-17T06:04:47;16.00;99.90
6964;DHT22;3522;50.856;7.278;2022-10-17T06:07:14;15.90;99.90
6964;DHT22;3522;50.856;7.278;2022-10-17T06:09:40;15.90;99.90
6964;DHT22;3522;50.856;7.278;2022-10-17T06:12:07;15.90;99.90
6964;DHT22;3522;50.856;7.278;2022-10-17T06:14:34;15.90;99.90
6964;DHT22;3522;50.856;7.278;2022-10-17T06:17:00;15.90;99.90
6964;DHT22;3522;50.856;7.278;2022-10-17T06:19:28;15.80;99.90
6964;DHT22;3522;50.856;7.278;2022-10-17T06:21:55;15.80;99.90
6964;DHT22;3522;50.856;7.278;2022-10-17T06:24:21;15.80;99.90
6964;DHT22;3522;50.856;7.278;2022-10-17T06:26:48;15.80;99.90
6964;DHT22;3522;50.856;7.278;2022-10-17T06:29:15;15.90;99.90
6964;DHT22;3522;50.856;7.278;2022-10-17T06:31:42;15.90;99.90
6964;DHT22;3522;50.856;7.278;2022-10-17T06:34:08;15.90;99.90
6964;DHT22;3522;50.856;7.278;2022-10-17T06:36:36;15.90;99.90
6964;DHT22;3522;50.856;7.278;2022-10-17T06:39:03;16.00;99.90
6964;DHT22;3522;50.856;7.278;2022-10-17T06:41:29;16.00;99.90
6964;DHT22;3522;50.856;7.278;2022-10-17T06:43:56;16.00;99.90
6964;DHT22;3522;50.856;7.278;2022-10-17T06:46:22;16.10;99.90
6964;DHT22;3522;50.856;7.278;2022-10-17T06:48:51;16.10;99.90
6964;DHT22;3522;50.856;7.278;2022-10-17T06:51:17;16.20;99.90
6964;DHT22;3522;50.856;7.278;2022-10-17T06:53:45;16.20;99.90
6964;DHT22;3522;50.856;7.278;2022-10-17T06:56:12;16.30;99.90
6964;DHT22;3522;50.856;7.278;2022-10-17T06:58:38;16.30;99.90
6964;DHT22;3522;50.856;7.278;2022-10-17T07:01:06;16.40;99.90
6964;DHT22;3522;50.856;7.278;2022-10-17T07:03:33;16.40;99.90
6964;DHT22;3522;50.856;7.278;2022-10-17T07:05:59;16.50;99.90
6964;DHT22;3522;50.856;7.278;2022-10-17T07:08:26;16.50;99.90
6964;DHT22;3522;50.856;7.278;2022-10-17T07:10:54;16.60;99.90
6964;DHT22;3522;50.856;7.278;2022-10-17T07:13:21;16.70;99.90
6964;DHT22;3522;50.856;7.278;2022-10-17T07:15:47;16.80;99.90
6964;DHT22;3522;50.856;7.278;2022-10-17T07:18:14;16.90;99.90
6964;DHT22;3522;50.856;7.278;2022-10-17T07:20:40;17.00;99.90
6964;DHT22;3522;50.856;7.278;2022-10-17T07:23:07;17.10;99.90
6964;DHT22;3522;50.856;7.278;2022-10-17T07:25:35;17.20;99.90
6964;DHT22;3522;50.856;7.278;2022-10-17T07:28:03;17.20;99.90
6964;DHT22;3522;50.856;7.278;2022-10-17T07:30:29;17.30;99.90
6964;DHT22;3522;50.856;7.278;2022-10-17T07:32:57;17.30;99.90
6964;DHT22;3522;50.856;7.278;2022-10-17T07:35:23;17.40;99.90
6964;DHT22;3522;50.856;7.278;2022-10-17T07:37:50;17.40;99.90
6964;DHT22;3522;50.856;7.278;2022-10-17T07:40:16;17.40;99.90
6964;DHT22;3522;50.856;7.278;2022-10-17T07:42:43;17.40;99.90
6964;DHT22;3522;50.856;7.278;2022-10-17T07:45:11;17.50;99.90
6964;DHT22;3522;50.856;7.278;2022-10-17T07:47:37;17.50;99.90
6964;DHT22;3522;50.856;7.278;2022-10-17T07:50:04;17.40;99.90
6964;DHT22;3522;50.856;7.278;2022-10-17T07:52:31;17.40;99.90
6964;DHT22;3522;50.856;7.278;2022-10-17T07:54:58;17.40;99.90
6964;DHT22;3522;50.856;7.278;2022-10-17T07:57:24;17.40;99.90
6964;DHT22;3522;50.856;7.278;2022-10-17T07:59:51;17.50;99.90
6964;DHT22;3522;50.856;7.278;2022-10-17T08:02:21;17.50;99.90
6964;DHT22;3522;50.856;7.278;2022-10-17T08:04:48;17.60;99.90
6964;DHT22;3522;50.856;7.278;2022-10-17T08:07:15;17.70;99.90
6964;DHT22;3522;50.856;7.278;2022-10-17T08:09:41;17.90;99.90
6964;DHT22;3522;50.856;7.278;2022-10-17T08:12:08;17.90;99.90
6964;DHT22;3522;50.856;7.278;2022-10-17T08:14:35;18.00;99.90
6964;DHT22;3522;50.856;7.278;2022-10-17T08:17:01;18.10;99.90
6964;DHT22;3522;50.856;7.278;2022-10-17T08:19:30;18.10;99.90
6964;DHT22;3522;50.856;7.278;2022-10-17T08:21:56;18.20;99.90
6964;DHT22;3522;50.856;7.278;2022-10-17T08:24:23;18.30;99.90
6964;DHT22;3522;50.856;7.278;2022-10-17T08:26:50;18.40;99.90
6964;DHT22;3522;50.856;7.278;2022-10-17T08:29:17;18.50;99.90
6964;DHT22;3522;50.856;7.278;2022-10-17T08:31:44;18.50;99.90
6964;DHT22;3522;50.856;7.278;2022-10-17T08:34:11;18.60;99.90
6964;DHT22;3522;50.856;7.278;2022-10-17T08:36:39;18.60;99.90
6964;DHT22;3522;50.856;7.278;2022-10-17T08:39:05;18.60;99.90
6964;DHT22;3522;50.856;7.278;2022-10-17T08:41:38;18.60;99.90
6964;DHT22;3522;50.856;7.278;2022-10-17T08:44:08;18.60;99.90
6964;DHT22;3522;50.856;7.278;2022-10-17T08:46:37;18.60;99.90
6964;DHT22;3522;50.856;7.278;2022-10-17T08:49:08;18.60;99.90
6964;DHT22;3522;50.856;7.278;2022-10-17T08:51:36;18.70;99.90
6964;DHT22;3522;50.856;7.278;2022-10-17T08:54:10;18.70;99.90
6964;DHT22;3522;50.856;7.278;2022-10-17T08:56:39;18.80;99.90
6964;DHT22;3522;50.856;7.278;2022-10-17T08:59:09;18.90;99.90
6964;DHT22;3522;50.856;7.278;2022-10-17T09:01:38;19.00;99.90
6964;DHT22;3522;50.856;7.278;2022-10-17T09:04:10;18.90;99.90
6964;DHT22;3522;50.856;7.278;2022-10-17T09:06:41;19.00;99.90
6964;DHT22;3522;50.856;7.278;2022-10-17T09:09:14;18.90;99.90
6964;DHT22;3522;50.856;7.278;2022-10-17T09:11:47;18.90;99.90
6964;DHT22;3522;50.856;7.278;2022-10-17T09:14:20;18.90;99.90
6964;DHT22;3522;50.856;7.278;2022-10-17T09:16:55;18.90;99.90
6964;DHT22;3522;50.856;7.278;2022-10-17T09:19:25;18.90;99.90
6964;DHT22;3522;50.856;7.278;2022-10-17T09:21:54;18.90;99.90
6964;DHT22;3522;50.856;7.278;2022-10-17T09:24:36;19.00;99.90
6964;DHT22;3522;50.856;7.278;2022-10-17T09:27:04;19.00;99.90
6964;DHT22;3522;50.856;7.278;2022-10-17T09:29:31;19.10;99.90
6964;DHT22;3522;50.856;7.278;2022-10-17T09:31:59;19.20;99.90
6964;DHT22;3522;50.856;7.278;2022-10-17T09:34:27;19.50;99.90
6964;DHT22;3522;50.856;7.278;2022-10-17T09:36:53;19.90;99.90
6964;DHT22;3522;50.856;7.278;2022-10-17T09:39:21;20.40;99.90
6964;DHT22;3522;50.856;7.278;2022-10-17T09:41:50;20.60;99.90
6964;DHT22;3522;50.856;7.278;2022-10-17T09:44:19;21.00;99.90
6964;DHT22;3522;50.856;7.278;2022-10-17T09:46:59;21.20;99.90
6964;DHT22;3522;50.856;7.278;2022-10-17T09:49:28;21.70;99.90
6964;DHT22;3522;50.856;7.278;2022-10-17T09:51:56;22.00;99.90
6964;DHT22;3522;50.856;7.278;2022-10-17T09:54:24;22.10;99.90
6964;DHT22;3522;50.856;7.278;2022-10-17T09:57:00;22.20;99.90
6964;DHT22;3522;50.856;7.278;2022-10-17T09:59:31;22.30;99.90
6964;DHT22;3522;50.856;7.278;2022-10-17T10:02:06;22.20;99.90
6964;DHT22;3522;50.856;7.278;2022-10-17T10:04:33;22.20;99.90
6964;DHT22;3522;50.856;7.278;2022-10-17T10:07:00;22.20;99.90
6964;DHT22;3522;50.856;7.278;2022-10-17T10:09:27;22.20;99.90
6964;DHT22;3522;50.856;7.278;2022-10-17T10:11:55;22.10;99.90
6964;DHT22;3522;50.856;7.278;2022-10-17T10:14:24;22.00;99.90
6964;DHT22;3522;50.856;7.278;2022-10-17T10:16:53;21.80;99.90
6964;DHT22;3522;50.856;7.278;2022-10-17T10:19:23;21.70;99.90
6964;DHT22;3522;50.856;7.278;2022-10-17T10:21:53;21.70;99.90
6964;DHT22;3522;50.856;7.278;2022-10-17T10:24:20;21.90;99.90
6964;DHT22;3522;50.856;7.278;2022-10-17T10:26:48;22.10;99.90
6964;DHT22;3522;50.856;7.278;2022-10-17T10:29:20;22.30;99.90
6964;DHT22;3522;50.856;7.278;2022-10-17T10:31:49;22.40;99.90
6964;DHT22;3522;50.856;7.278;2022-10-17T10:34:17;22.70;99.90
6964;DHT22;3522;50.856;7.278;2022-10-17T10:36:49;22.90;99.90
6964;DHT22;3522;50.856;7.278;2022-10-17T10:39:27;22.90;99.90
6964;DHT22;3522;50.856;7.278;2022-10-17T10:41:56;22.90;99.90
6964;DHT22;3522;50.856;7.278;2022-10-17T10:44:23;22.90;99.90
6964;DHT22;3522;50.856;7.278;2022-10-17T10:47:05;22.80;99.90
6964;DHT22;3522;50.856;7.278;2022-10-17T10:49:32;22.80;99.90
6964;DHT22;3522;50.856;7.278;2022-10-17T10:51:59;23.00;99.90
6964;DHT22;3522;50.856;7.278;2022-10-17T10:54:27;23.20;99.90
6964;DHT22;3522;50.856;7.278;2022-10-17T10:56:55;23.10;99.90
6964;DHT22;3522;50.856;7.278;2022-10-17T10:59:23;23.10;99.90
6964;DHT22;3522;50.856;7.278;2022-10-17T11:01:53;23.10;99.90
6964;DHT22;3522;50.856;7.278;2022-10-17T11:04:27;23.10;99.90
6964;DHT22;3522;50.856;7.278;2022-10-17T11:06:57;23.20;99.90
6964;DHT22;3522;50.856;7.278;2022-10-17T11:09:26;23.50;99.90
6964;DHT22;3522;50.856;7.278;2022-10-17T11:11:57;23.40;99.90
6964;DHT22;3522;50.856;7.278;2022-10-17T11:14:28;23.30;99.90
6964;DHT22;3522;50.856;7.278;2022-10-17T11:16:58;23.10;99.90
6964;DHT22;3522;50.856;7.278;2022-10-17T11:19:30;22.80;99.90
6964;DHT22;3522;50.856;7.278;2022-10-17T11:22:01;22.60;99.90
6964;DHT22;3522;50.856;7.278;2022-10-17T11:24:31;22.60;99.90
6964;DHT22;3522;50.856;7.278;2022-10-17T11:27:00;22.70;99.90
6964;DHT22;3522;50.856;7.278;2022-10-17T11:29:27;22.60;99.90
6964;DHT22;3522;50.856;7.278;2022-10-17T11:31:54;22.50;99.90
6964;DHT22;3522;50.856;7.278;2022-10-17T11:34:22;22.40;99.90
6964;DHT22;3522;50.856;7.278;2022-10-17T11:36:53;22.20;99.90
6964;DHT22;3522;50.856;7.278;2022-10-17T11:39:22;22.10;99.90
6964;DHT22;3522;50.856;7.278;2022-10-17T11:41:53;22.00;99.90
6964;DHT22;3522;50.856;7.278;2022-10-17T11:44:24;22.00;99.90
6964;DHT22;3522;50.856;7.278;2022-10-17T11:46:53;22.00;99.90
6964;DHT22;3522;50.856;7.278;2022-10-17T11:49:21;22.00;99.90
6964;DHT22;3522;50.856;7.278;2022-10-17T11:51:53;21.90;99.90
6964;DHT22;3522;50.856;7.278;2022-10-17T11:54:23;21.90;99.90
6964;DHT22;3522;50.856;7.278;2022-10-17T11:56:52;21.80;99.90
6964;DHT22;3522;50.856;7.278;2022-10-17T11:59:30;21.70;99.90
6964;DHT22;3522;50.856;7.278;2022-10-17T12:02:07;21.60;99.90
6964;DHT22;3522;50.856;7.278;2022-10-17T12:04:38;21.60;99.90
6964;DHT22;3522;50.856;7.278;2022-10-17T12:07:09;21.60;99.90
6964;DHT22;3522;50.856;7.278;2022-10-17T12:09:40;21.60;99.90
6964;DHT22;3522;50.856;7.278;2022-10-17T12:12:10;21.60;99.90
6964;DHT22;3522;50.856;7.278;2022-10-17T12:14:48;21.70;99.90
6964;DHT22;3522;50.856;7.278;2022-10-17T12:17:21;21.80;99.90
6964;DHT22;3522;50.856;7.278;2022-10-17T12:19:48;21.80;99.90
6964;DHT22;3522;50.856;7.278;2022-10-17T12:22:20;21.80;99.90
6964;DHT22;3522;50.856;7.278;2022-10-17T12:24:57;21.80;99.90
6964;DHT22;3522;50.856;7.278;2022-10-17T12:27:30;21.80;99.90
6964;DHT22;3522;50.856;7.278;2022-10-17T12:29:58;21.80;99.90
6964;DHT22;3522;50.856;7.278;2022-10-17T12:32:25;21.80;99.90
6964;DHT22;3522;50.856;7.278;2022-10-17T12:34:51;21.80;99.90
6964;DHT22;3522;50.856;7.278;2022-10-17T12:40:01;21.80;99.90
6964;DHT22;3522;50.856;7.278;2022-10-17T12:42:29;21.80;99.90
6964;DHT22;3522;50.856;7.278;2022-10-17T12:44:55;21.80;99.90
6964;DHT22;3522;50.856;7.278;2022-10-17T12:52:54;21.90;99.90
6964;DHT22;3522;50.856;7.278;2022-10-17T12:55:25;22.00;99.90
6964;DHT22;3522;50.856;7.278;2022-10-17T12:57:53;22.00;99.90
6964;DHT22;3522;50.856;7.278;2022-10-17T13:00:22;21.90;99.90
6964;DHT22;3522;50.856;7.278;2022-10-17T13:02:51;21.80;99.90
6964;DHT22;3522;50.856;7.278;2022-10-17T13:05:21;21.80;99.90
6964;DHT22;3522;50.856;7.278;2022-10-17T13:07:51;21.80;99.90
6964;DHT22;3522;50.856;7.278;2022-10-17T13:10:18;21.60;99.90
6964;DHT22;3522;50.856;7.278;2022-10-17T13:12:47;21.60;99.90
6964;DHT22;3522;50.856;7.278;2022-10-17T13:15:15;21.60;99.90
6964;DHT22;3522;50.856;7.278;2022-10-17T13:17:42;21.60;99.90
6964;DHT22;3522;50.856;7.278;2022-10-17T13:20:16;21.60;99.90
6964;DHT22;3522;50.856;7.278;2022-10-17T13:22:44;21.50;99.90
6964;DHT22;3522;50.856;7.278;2022-10-17T13:25:13;21.40;99.90
6964;DHT22;3522;50.856;7.278;2022-10-17T13:27:40;21.30;99.90
6964;DHT22;3522;50.856;7.278;2022-10-17T13:30:24;21.20;99.90
6964;DHT22;3522;50.856;7.278;2022-10-17T13:32:51;21.10;99.90
6964;DHT22;3522;50.856;7.278;2022-10-17T13:35:21;21.00;99.90
6964;DHT22;3522;50.856;7.278;2022-10-17T13:37:49;20.90;99.90
6964;DHT22;3522;50.856;7.278;2022-10-17T13:40:17;20.80;99.90
6964;DHT22;3522;50.856;7.278;2022-10-17T13:42:44;20.80;99.90
6964;DHT22;3522;50.856;7.278;2022-10-17T13:45:15;20.80;99.90
6964;DHT22;3522;50.856;7.278;2022-10-17T13:47:44;20.80;99.90
6964;DHT22;3522;50.856;7.278;2022-10-17T13:50:15;20.80;99.90
6964;DHT22;3522;50.856;7.278;2022-10-17T13:52:44;20.80;99.90
6964;DHT22;3522;50.856;7.278;2022-10-17T13:55:13;20.80;99.90
6964;DHT22;3522;50.856;7.278;2022-10-17T13:57:41;20.70;99.90
6964;DHT22;3522;50.856;7.278;2022-10-17T14:00:10;20.70;99.90
6964;DHT22;3522;50.856;7.278;2022-10-17T14:02:40;20.70;99.90
6964;DHT22;3522;50.856;7.278;2022-10-17T14:05:11;20.70;99.90
6964;DHT22;3522;50.856;7.278;2022-10-17T14:07:38;20.60;99.90
6964;DHT22;3522;50.856;7.278;2022-10-17T14:10:13;20.60;99.90
6964;DHT22;3522;50.856;7.278;2022-10-17T14:12:43;20.50;99.90
6964;DHT22;3522;50.856;7.278;2022-10-17T14:15:11;20.50;99.90
6964;DHT22;3522;50.856;7.278;2022-10-17T14:17:38;20.50;99.90
6964;DHT22;3522;50.856;7.278;2022-10-17T14:20:05;20.50;99.90
6964;DHT22;3522;50.856;7.278;2022-10-17T14:22:35;20.50;99.90
6964;DHT22;3522;50.856;7.278;2022-10-17T14:25:02;20.50;99.90
6964;DHT22;3522;50.856;7.278;2022-10-17T14:27:30;20.50;99.90
6964;DHT22;3522;50.856;7.278;2022-10-17T14:29:59;20.50;99.90
6964;DHT22;3522;50.856;7.278;2022-10-17T14:32:27;20.60;99.90
6964;DHT22;3522;50.856;7.278;2022-10-17T14:34:54;20.60;99.90
6964;DHT22;3522;50.856;7.278;2022-10-17T14:37:26;20.60;99.90
6964;DHT22;3522;50.856;7.278;2022-10-17T14:39:59;20.60;99.90
6964;DHT22;3522;50.856;7.278;2022-10-17T14:42:26;20.60;99.90
6964;DHT22;3522;50.856;7.278;2022-10-17T14:44:53;20.70;99.90
6964;DHT22;3522;50.856;7.278;2022-10-17T14:47:20;20.60;99.90
6964;DHT22;3522;50.856;7.278;2022-10-17T14:49:48;20.60;99.90
6964;DHT22;3522;50.856;7.278;2022-10-17T14:52:24;20.60;99.90
6964;DHT22;3522;50.856;7.278;2022-10-17T14:54:51;20.60;99.90
6964;DHT22;3522;50.856;7.278;2022-10-17T14:57:21;20.50;99.90
6964;DHT22;3522;50.856;7.278;2022-10-17T14:59:48;20.50;99.90
6964;DHT22;3522;50.856;7.278;2022-10-17T15:02:15;20.40;99.90
6964;DHT22;3522;50.856;7.278;2022-10-17T15:04:41;20.40;99.90
6964;DHT22;3522;50.856;7.278;2022-10-17T15:07:09;20.40;99.90
6964;DHT22;3522;50.856;7.278;2022-10-17T15:09:38;20.30;99.90
6964;DHT22;3522;50.856;7.278;2022-10-17T15:12:06;20.30;99.90
6964;DHT22;3522;50.856;7.278;2022-10-17T15:14:34;20.20;99.90
6964;DHT22;3522;50.856;7.278;2022-10-17T15:17:00;20.20;99.90
6964;DHT22;3522;50.856;7.278;2022-10-17T15:19:27;20.10;99.90
6964;DHT22;3522;50.856;7.278;2022-10-17T15:21:53;20.10;99.90
6964;DHT22;3522;50.856;7.278;2022-10-17T15:24:20;20.00;99.90
6964;DHT22;3522;50.856;7.278;2022-10-17T15:26:46;20.00;99.90
6964;DHT22;3522;50.856;7.278;2022-10-17T15:29:13;20.00;99.90
6964;DHT22;3522;50.856;7.278;2022-10-17T15:31:41;19.90;99.90
6964;DHT22;3522;50.856;7.278;2022-10-17T15:34:08;19.90;99.90
6964;DHT22;3522;50.856;7.278;2022-10-17T15:36:35;19.90;99.90
6964;DHT22;3522;50.856;7.278;2022-10-17T15:39:04;19.80;99.90
6964;DHT22;3522;50.856;7.278;2022-10-17T15:41:31;19.80;99.90
6964;DHT22;3522;50.856;7.278;2022-10-17T15:43:58;19.80;99.90
6964;DHT22;3522;50.856;7.278;2022-10-17T15:46:25;19.70;99.90
6964;DHT22;3522;50.856;7.278;2022-10-17T15:48:54;19.70;99.90
6964;DHT22;3522;50.856;7.278;2022-10-17T15:51:21;19.70;99.90
6964;DHT22;3522;50.856;7.278;2022-10-17T15:53:48;19.60;99.90
6964;DHT22;3522;50.856;7.278;2022-10-17T15:56:18;19.60;99.90
6964;DHT22;3522;50.856;7.278;2022-10-17T15:58:45;19.50;99.90
6964;DHT22;3522;50.856;7.278;2022-10-17T16:01:15;19.50;99.90
6964;DHT22;3522;50.856;7.278;2022-10-17T16:03:44;19.40;99.90
6964;DHT22;3522;50.856;7.278;2022-10-17T16:06:14;19.40;99.90
6964;DHT22;3522;50.856;7.278;2022-10-17T16:08:41;19.30;99.90
6964;DHT22;3522;50.856;7.278;2022-10-17T16:11:09;19.30;99.90
6964;DHT22;3522;50.856;7.278;2022-10-17T16:13:37;19.20;99.90
6964;DHT22;3522;50.856;7.278;2022-10-17T16:16:07;19.20;99.90
6964;DHT22;3522;50.856;7.278;2022-10-17T16:18:33;19.20;99.90
6964;DHT22;3522;50.856;7.278;2022-10-17T16:21:00;19.20;99.90
6964;DHT22;3522;50.856;7.278;2022-10-17T16:23:28;19.30;99.90